Time;durP1;ratioP1;P1;durP2;ratioP2;P2;SDS_P1;SDS_P2;PMS_P1;PMS_P2;Temp;Humidity;BMP_temperature;BMP_pressure;BME280_temperature;BME280_humidity;BME280_pressure;Samples;Min_cycle;Max_cycle;Signal;HPM_P1;HPM_P2
2022/09/12 17:47:48;;;;;;;1.60;1.50;;;15.90;99.90;;;;;;4834594;29;20140;-85
2022/09/12 17:50:30;;;;;;;2.55;2.10;;;15.60;99.90;;;;;;4828101;29;20527;-85
2022/09/12 18:08:49;;;;;;;2.65;2.17;;;14.70;99.90;;;;;;5391378;24;20056;-86
2022/09/12 18:11:29;;;;;;;1.88;1.75;;;14.50;99.90;;;;;;4832331;29;20057;-85
2022/09/12 18:19:11;;;;;;;1.90;1.48;;;14.40;99.90;;;;;;4773613;30;20048;-86
2022/09/12 18:24:11;;;;;;;3.45;2.28;;;14.50;99.90;;;;;;4778842;29;20061;-87
2022/09/12 18:27:13;;;;;;;3.10;2.17;;;14.20;99.90;;;;;;4786533;29;20047;-87
2022/09/12 18:31:15;;;;;;;1.85;1.75;;;14.00;99.90;;;;;;4754577;30;20063;-86
2022/09/12 18:34:44;;;;;;;2.10;1.90;;;14.30;99.90;;;;;;4779766;29;20050;-87
2022/09/12 18:37:21;;;;;;;;;;;14.40;99.90;;;;;;4758903;29;20062;-87
2022/09/12 18:39:49;;;;;;;2.42;2.20;;;13.80;99.90;;;;;;4792432;29;19928;-86
2022/09/12 18:42:17;;;;;;;1.60;1.50;;;13.60;99.90;;;;;;4829305;29;20712;-86
2022/09/12 18:44:44;;;;;;;3.17;2.80;;;13.20;99.90;;;;;;4841685;29;20046;-87
2022/09/12 18:47:12;;;;;;;1.70;1.60;;;13.70;99.90;;;;;;4815549;29;20080;-87
2022/09/12 18:49:40;;;;;;;2.33;2.10;;;13.50;99.90;;;;;;4811894;29;20413;-87
2022/09/12 18:52:53;;;;;;;2.45;2.10;;;13.50;99.90;;;;;;4838996;29;20049;-87
2022/09/12 18:55:26;;;;;;;2.75;2.35;;;13.50;99.90;;;;;;4823634;29;20053;-86
2022/09/12 18:57:54;;;;;;;2.80;2.53;;;13.70;99.90;;;;;;4824904;29;20050;-87
2022/09/12 19:00:22;;;;;;;2.75;2.53;;;13.50;99.90;;;;;;4819445;29;20053;-87
2022/09/12 19:02:50;;;;;;;3.25;2.75;;;13.40;99.90;;;;;;4827036;29;20558;-87
2022/09/12 19:05:18;;;;;;;2.67;2.47;;;13.30;99.90;;;;;;4808865;29;20054;-88
2022/09/12 19:07:46;;;;;;;6.22;2.38;;;13.30;99.90;;;;;;4810380;29;20396;-87
2022/09/12 19:10:13;;;;;;;2.45;1.98;;;13.70;99.90;;;;;;4827235;29;20076;-87
2022/09/12 19:12:42;;;;;;;2.78;2.58;;;13.20;99.90;;;;;;4809942;29;20160;-86
2022/09/12 19:15:10;;;;;;;3.72;3.30;;;13.20;99.90;;;;;;4825470;29;20054;-87
2022/09/12 19:17:37;;;;;;;2.60;2.38;;;13.00;99.90;;;;;;4809146;29;20050;-86
2022/09/12 19:20:08;;;;;;;4.20;3.65;;;12.90;99.90;;;;;;4863623;24;20170;-87
2022/09/12 19:23:47;;;;;;;3.50;3.20;;;12.80;99.90;;;;;;4832939;29;20069;-88
2022/09/12 19:26:17;;;;;;;3.08;2.88;;;12.80;99.90;;;;;;4845716;29;20049;-87
2022/09/12 19:28:45;;;;;;;2.33;2.13;;;12.70;99.90;;;;;;4855359;29;20592;-87
2022/09/12 19:31:17;;;;;;;5.68;3.47;;;13.00;99.90;;;;;;4833567;29;20061;-87
2022/09/12 19:33:46;;;;;;;3.42;3.13;;;12.80;99.90;;;;;;4832220;29;20065;-86
2022/09/12 19:36:16;;;;;;;6.15;3.38;;;13.20;99.90;;;;;;4828825;29;20072;-87
2022/09/12 19:39:05;;;;;;;3.00;2.53;;;12.70;99.90;;;;;;4840167;29;20044;-86
2022/09/12 19:41:33;;;;;;;2.60;2.38;;;12.50;99.90;;;;;;4844589;29;20049;-86
2022/09/12 19:44:00;;;;;;;4.57;2.88;;;13.00;99.90;;;;;;4824218;29;20049;-86
2022/09/12 19:46:28;;;;;;;7.20;3.20;;;12.30;99.90;;;;;;4861287;29;20049;-87
2022/09/12 19:48:56;;;;;;;2.50;2.30;;;12.60;99.90;;;;;;4857453;29;20049;-86
2022/09/12 19:51:27;;;;;;;3.05;2.85;;;12.60;99.90;;;;;;4845186;29;20064;-86
2022/09/12 19:54:34;;;;;;;3.38;2.47;;;12.40;99.90;;;;;;4852362;29;20075;-87
2022/09/12 19:57:08;;;;;;;5.47;3.10;;;12.40;99.90;;;;;;4845252;29;20071;-87
2022/09/12 19:59:37;;;;;;;3.28;2.95;;;12.30;99.90;;;;;;4847300;29;20053;-88
2022/09/12 20:02:05;;;;;;;4.38;2.53;;;12.50;99.90;;;;;;4855007;29;20048;-87
2022/09/12 20:04:32;;;;;;;2.97;2.60;;;13.50;99.90;;;;;;4847314;29;20049;-88
2022/09/12 20:07:00;;;;;;;3.28;2.97;;;12.20;99.90;;;;;;4825930;29;20061;-87
2022/09/12 20:09:30;;;;;;;3.58;3.28;;;11.90;99.90;;;;;;4827579;29;20065;-88
2022/09/12 20:11:58;;;;;;;5.05;3.13;;;12.20;99.90;;;;;;4835650;29;20041;-87
2022/09/12 20:14:25;;;;;;;3.80;3.40;;;12.20;99.90;;;;;;4836096;29;20060;-88
2022/09/12 20:16:53;;;;;;;3.65;3.30;;;12.10;99.90;;;;;;4829118;29;20053;-87
2022/09/12 20:19:21;;;;;;;5.32;3.67;;;12.10;99.90;;;;;;4843912;29;20066;-88
2022/09/12 20:21:48;;;;;;;4.90;3.83;;;11.50;99.90;;;;;;4851989;29;20104;-88
2022/09/12 20:24:19;;;;;;;6.43;3.28;;;12.20;99.90;;;;;;4830974;29;20691;-84
2022/09/12 20:26:47;;;;;;;4.32;3.70;;;11.90;99.90;;;;;;4854633;29;20048;-84
2022/09/12 20:29:14;;;;;;;9.55;3.95;;;11.90;99.90;;;;;;4853722;29;20061;-83
2022/09/12 20:31:42;;;;;;;6.28;3.75;;;11.80;99.90;;;;;;4870355;29;20041;-84
2022/09/12 20:34:14;;;;;;;5.40;4.05;;;11.90;99.90;;;;;;4858721;29;20088;-84
2022/09/12 20:36:41;;;;;;;4.88;4.38;;;11.70;99.90;;;;;;4862795;29;20060;-84
2022/09/12 20:39:15;;;;;;;4.53;4.13;;;11.90;99.90;;;;;;4879166;29;20055;-84
2022/09/12 20:41:43;;;;;;;3.90;3.17;;;12.20;99.90;;;;;;4858240;29;20045;-84
2022/09/12 20:44:11;;;;;;;5.35;3.65;;;11.90;99.90;;;;;;4844893;29;20045;-84
2022/09/12 20:46:38;;;;;;;9.05;4.00;;;12.20;99.90;;;;;;4860640;29;20056;-84
2022/09/12 20:49:07;;;;;;;5.03;3.65;;;12.10;99.90;;;;;;4856681;29;20073;-84
2022/09/12 20:51:35;;;;;;;5.82;3.80;;;12.00;99.90;;;;;;4827541;29;20407;-84
2022/09/12 20:54:06;;;;;;;7.30;3.85;;;12.10;99.90;;;;;;4852329;29;20052;-84
2022/09/12 20:56:35;;;;;;;7.90;4.30;;;11.80;99.90;;;;;;4847999;29;20057;-84
2022/09/12 20:59:03;;;;;;;3.72;3.35;;;11.60;99.90;;;;;;4829804;29;20074;-84
2022/09/12 21:01:31;;;;;;;5.63;3.47;;;11.90;99.90;;;;;;4837823;29;20049;-84
2022/09/12 21:04:00;;;;;;;5.38;4.10;;;11.90;99.90;;;;;;4821430;29;20056;-84
2022/09/12 21:06:28;;;;;;;5.15;4.22;;;11.80;99.90;;;;;;4876298;29;20613;-83
2022/09/12 21:08:59;;;;;;;3.47;2.90;;;11.80;99.90;;;;;;4825609;29;20957;-83
2022/09/12 21:11:27;;;;;;;4.15;3.75;;;11.70;99.90;;;;;;4840022;29;20053;-84
2022/09/12 21:13:55;;;;;;;4.35;3.95;;;11.70;99.90;;;;;;4843607;29;20056;-83
2022/09/12 21:16:23;;;;;;;5.90;4.15;;;11.70;99.90;;;;;;4843579;29;20057;-83
2022/09/12 21:18:58;;;;;;;4.00;3.60;;;11.60;99.90;;;;;;4844522;29;20763;-83
2022/09/12 21:21:25;;;;;;;5.13;4.18;;;11.80;99.90;;;;;;4859130;29;20045;-83
2022/09/12 21:23:59;;;;;;;4.97;4.25;;;11.60;99.90;;;;;;4858546;29;20056;-83
2022/09/12 21:26:27;;;;;;;5.50;4.03;;;11.60;99.90;;;;;;4835276;29;20064;-84
2022/09/12 21:28:54;;;;;;;4.72;4.32;;;11.60;99.90;;;;;;4838104;29;20882;-83
2022/09/12 21:31:23;;;;;;;5.40;4.90;;;12.00;99.90;;;;;;4843837;29;20407;-83
2022/09/12 21:33:50;;;;;;;9.25;4.50;;;11.50;99.90;;;;;;4858912;29;20052;-83
2022/09/12 21:36:18;;;;;;;5.65;4.43;;;11.70;99.90;;;;;;4828469;29;20045;-84
2022/09/12 21:38:45;;;;;;;4.95;4.22;;;11.50;99.90;;;;;;4859444;29;20590;-83
2022/09/12 21:41:15;;;;;;;5.20;4.75;;;11.70;99.90;;;;;;4843452;29;20053;-83
2022/09/12 21:43:43;;;;;;;4.38;3.97;;;11.70;99.90;;;;;;4861345;29;20049;-83
2022/09/12 21:46:10;;;;;;;5.82;4.47;;;11.60;99.90;;;;;;4842684;29;20053;-84
2022/09/12 21:48:38;;;;;;;5.28;4.75;;;11.40;99.90;;;;;;4843314;29;20053;-84
2022/09/12 21:51:06;;;;;;;4.72;4.10;;;11.40;99.90;;;;;;4840668;29;20049;-84
2022/09/12 21:54:14;;;;;;;4.70;4.18;;;11.30;99.90;;;;;;4875231;29;20077;-84
2022/09/12 21:56:42;;;;;;;4.85;4.32;;;11.30;99.90;;;;;;4842646;29;20060;-84
2022/09/12 21:59:09;;;;;;;11.68;4.75;;;11.40;99.90;;;;;;4828237;29;20056;-84
2022/09/12 22:01:40;;;;;;;5.75;5.20;;;11.60;99.90;;;;;;4852997;29;20049;-84
2022/09/12 22:04:13;;;;;;;7.43;4.43;;;11.50;99.90;;;;;;4859122;29;20499;-83
2022/09/12 22:06:41;;;;;;;6.07;4.93;;;11.30;99.90;;;;;;4842735;29;20053;-84
2022/09/12 22:09:08;;;;;;;4.53;4.13;;;11.30;99.90;;;;;;4820789;29;20041;-84
2022/09/12 22:11:36;;;;;;;5.00;3.97;;;12.00;99.90;;;;;;4858822;29;20057;-83
2022/09/12 22:14:04;;;;;;;5.97;5.10;;;11.30;99.90;;;;;;4842813;29;20056;-85
2022/09/12 22:16:32;;;;;;;5.95;4.35;;;11.10;99.90;;;;;;4842647;29;20053;-84
2022/09/12 22:19:00;;;;;;;5.03;4.45;;;11.00;99.90;;;;;;4848946;29;20061;-84
2022/09/12 22:21:27;;;;;;;5.35;4.85;;;11.10;99.90;;;;;;4844407;29;20049;-84
2022/09/12 22:26:43;;;;;;;13.27;6.20;;;11.10;99.90;;;;;;4858872;29;20080;-84
2022/09/12 22:29:12;;;;;;;5.72;5.15;;;11.20;99.90;;;;;;4843422;29;20053;-84
2022/09/12 22:31:39;;;;;;;5.40;4.90;;;11.10;99.90;;;;;;4841077;29;20045;-84
2022/09/12 22:34:07;;;;;;;5.93;4.35;;;11.30;99.90;;;;;;4842577;29;20053;-84
2022/09/12 22:36:34;;;;;;;5.93;4.45;;;11.50;99.90;;;;;;4842555;29;20507;-85
2022/09/12 22:39:06;;;;;;;10.40;6.60;;;11.10;99.90;;;;;;4828485;29;20569;-84
2022/09/12 22:41:33;;;;;;;5.57;4.90;;;11.00;99.90;;;;;;4843168;29;20061;-85
2022/09/12 22:44:01;;;;;;;6.38;4.18;;;11.40;99.90;;;;;;4858187;29;20052;-84
2022/09/12 22:46:29;;;;;;;4.63;4.22;;;10.90;99.90;;;;;;4843463;29;20490;-85
2022/09/12 22:48:58;;;;;;;5.50;4.93;;;11.20;99.90;;;;;;4827336;29;20041;-85
2022/09/12 22:51:25;;;;;;;7.05;4.78;;;11.00;99.90;;;;;;4841387;29;20479;-85
2022/09/12 22:54:04;;;;;;;5.80;5.28;;;11.10;99.90;;;;;;4843489;29;20036;-84
2022/09/12 22:56:32;;;;;;;5.22;4.60;;;11.30;99.90;;;;;;4833364;29;20056;-85
2022/09/12 22:59:00;;;;;;;7.70;4.82;;;11.00;99.90;;;;;;4825486;29;20049;-85
2022/09/12 23:01:30;;;;;;;5.80;4.68;;;11.30;99.90;;;;;;4855626;29;20042;-84
2022/09/12 23:03:58;;;;;;;5.38;4.95;;;11.00;99.90;;;;;;4821934;29;20072;-85
2022/09/12 23:06:25;;;;;;;9.55;7.05;;;10.90;99.90;;;;;;4865579;29;20816;-85
2022/09/12 23:08:55;;;;;;;5.00;4.18;;;10.90;99.90;;;;;;4850225;29;20063;-84
2022/09/12 23:11:23;;;;;;;4.20;3.80;;;10.90;99.90;;;;;;4844523;29;20068;-84
2022/09/12 23:13:51;;;;;;;5.05;3.83;;;10.70;99.90;;;;;;4813352;29;20294;-84
2022/09/12 23:16:24;;;;;;;4.63;4.20;;;10.50;99.90;;;;;;4835582;29;20415;-84
2022/09/12 23:18:52;;;;;;;4.00;3.67;;;10.50;99.90;;;;;;4846337;29;20057;-84
2022/09/12 23:21:20;;;;;;;5.03;4.63;;;10.30;99.90;;;;;;4845957;29;20053;-84
2022/09/12 23:23:49;;;;;;;6.00;4.05;;;10.60;99.90;;;;;;4877572;29;20053;-85
2022/09/12 23:26:19;;;;;;;19.13;6.65;;;10.50;99.90;;;;;;4861759;29;20049;-85
2022/09/12 23:28:54;;;;;;;5.45;4.88;;;10.60;99.90;;;;;;4830530;29;20053;-85
2022/09/12 23:31:23;;;;;;;5.45;4.95;;;10.50;99.90;;;;;;4861552;29;20060;-84
2022/09/12 23:33:52;;;;;;;6.45;4.20;;;10.40;99.90;;;;;;4861283;29;20068;-84
2022/09/12 23:36:21;;;;;;;17.52;5.80;;;10.70;99.90;;;;;;4846090;29;20069;-84
2022/09/12 23:38:49;;;;;;;5.65;4.18;;;10.30;99.90;;;;;;4830534;29;20072;-85
2022/09/12 23:41:17;;;;;;;6.18;5.07;;;10.60;99.90;;;;;;4860855;29;20060;-84
2022/09/12 23:43:45;;;;;;;9.18;5.45;;;10.40;99.90;;;;;;4830116;29;20057;-84
2022/09/12 23:46:14;;;;;;;5.03;4.53;;;10.40;99.90;;;;;;4830509;29;20071;-85
2022/09/12 23:48:42;;;;;;;6.10;4.85;;;10.10;99.90;;;;;;4845761;29;20053;-85
2022/09/12 23:51:11;;;;;;;5.35;4.85;;;10.60;99.90;;;;;;4845624;29;20060;-85
2022/09/12 23:54:10;;;;;;;5.10;4.55;;;10.60;99.90;;;;;;4842283;29;20737;-84
2022/09/12 23:56:38;;;;;;;7.00;4.75;;;10.50;99.90;;;;;;4827311;29;20054;-84
2022/09/12 23:59:05;;;;;;;4.35;3.92;;;10.50;99.90;;;;;;4841565;29;20049;-85
